Airfield :







YOU CAN JOIN US ON...

 
LOGIN :

Register | Disclaimer

   EN    FR    IT 

 









Legend :    VFR   Marginal VFR   IFR   Intensive IFR   Very Intensive IFR
Visi :
Ceiling :
>= 8 km
>= 3000ft
5 to 8 km
1000 to 3000 ft
1500m to 5 km
500 to 1000 ft
800 to 1500m
200 to 500 ft
< 800m
< 200 ft
Symbols :   Thunderstorms  Fog  Heavy snow  Heavy precipitations  Wind > 20 kt






- Airport Elevation : 241 ft
- IATA code : CEF


KCEF - Westover ARB/Metropolitan

CURRENT METAR :
  • 121456Z 29011KT 10SM BKN035 OVC050 27/18 A2966 RMK AO2A SLP048 WND DATA ESTMD T02690182 52010

EXPIRED METARs :
  • 121356Z 25010G15KT 10SM BKN037 26/19 A2965 RMK AO2A SLP044 WND DATA ESTMD T02640188
  • 121256Z 20007KT 10SM FEW020 SCT041 25/19 A2964 RMK AO2A SLP041 WND DATA ESTMD T02530187

TAF TAF KCEF
Valid from the 12 at 13:00 until the 13 at 19:00 UTC


121300Z 1213/1319 24012KT 9999 FEW020 SCT045 510204 QNH2963INS
BECMG 1214/1215 27012G18KT 9999 SCT060 SCT200 510204 QNH2964INS
BECMG 1222/1223 22009KT 9999 FEW050 SCT200 QNH2967INS
BECMG 1305/1306 VRB06KT 9999 BKN006 QNH2976INS
TEMPO 1310/1314 8000 -SHRA
BECMG 1313/1314 19009KT 9999 FEW008 BKN050 QNH2981INS
BECMG 1317/1318 19012G18KT 9999 BKN030 BKN250 QNH2981INS TX33/1220Z TN18/1310Z
KZBW FIR / North America



MET'MAP, your aeronautical weather chart ! - Copyright ORBIFLY December 2007 - Disclaimer

ORBIFLY MET'MAP TEAM :

Programming & Development : Alexandra Zaïnal
Concept & original design : Baudouin d'Aumeries
Assistance for programming : Marc-Olivier Méhu
Technical & hardware support : Manuel Goepfert

Contact : metmap@orbifly.com




SOURCES & CREDITS :

   NOAA